createdAt,value
2022-10-22T00:01:26.435Z,1.20
2022-10-22T00:03:55.650Z,0.40
2022-10-22T00:06:25.871Z,0.40
2022-10-22T00:08:55.850Z,0.40
2022-10-22T00:11:25.800Z,0.40
2022-10-22T00:13:57.180Z,0.70
2022-10-22T00:16:25.662Z,0.70
2022-10-22T00:18:55.661Z,0.70
2022-10-22T00:21:29.576Z,0.70
2022-10-22T00:23:55.666Z,2.10
2022-10-22T00:28:55.806Z,2.10
2022-10-22T00:33:55.645Z,0.70
2022-10-22T00:36:25.753Z,0.70
2022-10-22T00:38:55.566Z,0.70
2022-10-22T00:41:25.591Z,0.70
2022-10-22T00:43:57.575Z,0.30
2022-10-22T00:46:25.875Z,0.30
2022-10-22T00:48:57.866Z,0.30
2022-10-22T00:51:29.688Z,0.30
2022-10-22T00:54:02.052Z,0.50
2022-10-22T00:56:26.039Z,0.50
2022-10-22T00:58:59.636Z,0.50
2022-10-22T01:01:27.758Z,0.50
2022-10-22T01:03:55.701Z,1.20
2022-10-22T01:06:27.926Z,1.20
2022-10-22T01:09:08.061Z,1.20
2022-10-22T01:11:34.806Z,1.20
2022-10-22T01:14:03.378Z,0.30
2022-10-22T01:16:34.363Z,0.30
2022-10-22T01:19:07.196Z,0.30
2022-10-22T01:24:15.626Z,0.90
2022-10-22T01:26:36.995Z,0.90
2022-10-22T01:29:01.426Z,0.90
2022-10-22T01:31:30.527Z,0.90
2022-10-22T01:33:58.310Z,0.90
2022-10-22T01:36:28.539Z,0.90
2022-10-22T01:38:58.015Z,0.90
2022-10-22T01:41:26.719Z,0.90
2022-10-22T01:43:56.234Z,0.20
2022-10-22T01:46:27.905Z,0.20
2022-10-22T01:49:11.638Z,0.20
2022-10-22T01:51:40.574Z,0.20
2022-10-22T01:54:01.846Z,0.30
2022-10-22T01:56:39.948Z,0.30
2022-10-22T01:59:06.455Z,0.30
2022-10-22T02:01:31.246Z,0.30
2022-10-22T02:04:03.418Z,0.10
2022-10-22T02:06:28.953Z,0.10
2022-10-22T02:08:57.477Z,0.10
2022-10-22T02:11:25.949Z,0.10
2022-10-22T02:16:29.757Z,0.60
2022-10-22T02:18:58.567Z,0.60
2022-10-22T02:21:26.451Z,0.60
2022-10-22T02:23:55.928Z,0.30
2022-10-22T02:26:32.806Z,0.30
2022-10-22T02:29:02.671Z,0.30
2022-10-22T02:31:29.651Z,0.30
2022-10-22T02:33:58.404Z,0.40
2022-10-22T02:36:26.384Z,0.40
2022-10-22T02:38:56.006Z,0.40
2022-10-22T02:41:26.585Z,0.40
2022-10-22T02:43:55.983Z,0.70
2022-10-22T02:46:25.769Z,0.70
2022-10-22T02:48:55.762Z,0.70
2022-10-22T02:51:25.755Z,0.70
2022-10-22T02:53:55.655Z,0.10
2022-10-22T02:56:26.526Z,0.10
2022-10-22T03:01:25.718Z,0.10
2022-10-22T03:03:55.629Z,0.60
2022-10-22T03:08:57.012Z,0.60
2022-10-22T03:11:25.807Z,0.60
2022-10-22T03:13:55.651Z,0.50
2022-10-22T03:16:25.749Z,0.50
2022-10-22T03:18:55.926Z,0.50
2022-10-22T03:21:31.120Z,0.50
2022-10-22T03:23:56.105Z,0.10
2022-10-22T03:26:25.660Z,0.10
2022-10-22T03:28:55.918Z,0.10
2022-10-22T03:31:25.928Z,0.10
2022-10-22T03:33:55.786Z,0.70
2022-10-22T03:36:26.085Z,0.70
2022-10-22T03:38:55.722Z,0.70
2022-10-22T03:41:25.871Z,0.70
2022-10-22T03:43:56.666Z,0.50
2022-10-22T03:46:25.725Z,0.50
2022-10-22T03:51:26.746Z,0.50
2022-10-22T03:53:55.689Z,0.30
2022-10-22T03:56:25.952Z,0.30
2022-10-22T03:58:56.835Z,0.30
2022-10-22T04:01:26.715Z,0.30
2022-10-22T04:06:25.888Z,0.60
2022-10-22T04:08:55.779Z,0.60
2022-10-22T04:11:25.677Z,0.60
2022-10-22T04:13:55.776Z,0.90
2022-10-22T04:16:30.645Z,0.90
2022-10-22T04:21:25.965Z,0.90
2022-10-22T04:23:56.651Z,0.40
2022-10-22T04:26:26.073Z,0.40
2022-10-22T04:28:55.664Z,0.40
2022-10-22T04:31:25.985Z,0.40
2022-10-22T04:33:57.545Z,1.00
2022-10-22T04:36:27.762Z,1.00
2022-10-22T04:38:58.380Z,1.00
2022-10-22T04:41:28.106Z,1.00
2022-10-22T04:43:56.532Z,0.70
2022-10-22T04:48:57.188Z,0.70
2022-10-22T04:51:26.261Z,0.70
2022-10-22T04:53:55.841Z,0.10
2022-10-22T04:56:27.687Z,0.10
2022-10-22T04:58:57.961Z,0.10
2022-10-22T05:01:27.726Z,0.10
2022-10-22T05:03:57.803Z,0.40
2022-10-22T05:06:27.929Z,0.40
2022-10-22T05:08:58.155Z,0.40
2022-10-22T05:11:28.499Z,0.40
2022-10-22T05:13:57.054Z,0.30
2022-10-22T05:23:58.881Z,0.30
2022-10-22T05:26:27.475Z,0.30
2022-10-22T05:28:55.948Z,0.30
2022-10-22T05:31:27.965Z,0.30
2022-10-22T05:33:55.927Z,0.20
2022-10-22T05:36:26.203Z,0.20
2022-10-22T05:38:56.374Z,0.20
2022-10-22T05:41:27.342Z,0.20
2022-10-22T05:43:57.862Z,0.30
2022-10-22T05:46:27.295Z,0.30
2022-10-22T05:48:58.313Z,0.30
2022-10-22T05:53:58.169Z,0.10
2022-10-22T05:56:28.529Z,0.10
2022-10-22T05:58:56.053Z,0.10
2022-10-22T06:01:27.928Z,0.10
2022-10-22T06:03:58.147Z,0.10
2022-10-22T06:06:29.530Z,0.10
2022-10-22T06:09:00.636Z,0.10
2022-10-22T06:11:25.704Z,0.10
2022-10-22T06:16:28.297Z,0.10
2022-10-22T06:18:58.615Z,0.10
2022-10-22T06:21:25.870Z,0.10
2022-10-22T06:23:56.177Z,2.20
2022-10-22T06:28:56.432Z,2.20
2022-10-22T06:31:26.670Z,2.20
2022-10-22T06:33:56.067Z,0.20
2022-10-22T06:36:25.895Z,0.20
2022-10-22T06:38:56.335Z,0.20
2022-10-22T06:43:56.987Z,0.20
2022-10-22T06:46:26.373Z,0.20
2022-10-22T06:48:59.617Z,0.20
2022-10-22T06:51:26.681Z,0.20
2022-10-22T06:53:57.421Z,0.20
2022-10-22T06:56:27.679Z,0.20
2022-10-22T06:58:57.439Z,0.20
2022-10-22T07:01:28.964Z,0.20
2022-10-22T07:03:56.477Z,0.30
2022-10-22T07:06:27.988Z,0.30
2022-10-22T07:08:57.898Z,0.30
2022-10-22T07:11:27.381Z,0.30
2022-10-22T07:13:58.106Z,0.30
2022-10-22T07:16:29.664Z,0.30
2022-10-22T07:18:56.026Z,0.30
2022-10-22T07:21:25.808Z,0.30
2022-10-22T07:23:55.891Z,0.10
2022-10-22T07:26:29.586Z,0.10
2022-10-22T07:28:56.564Z,0.10
2022-10-22T07:31:25.770Z,0.10
2022-10-22T07:33:56.851Z,0.10
2022-10-22T07:36:25.890Z,0.10
2022-10-22T07:38:57.490Z,0.10
2022-10-22T07:41:27.684Z,0.10
2022-10-22T07:43:56.750Z,0.20
2022-10-22T07:46:26.788Z,0.20
2022-10-22T07:48:55.880Z,0.20
2022-10-22T07:51:25.929Z,0.20
2022-10-22T07:53:56.053Z,0.30
2022-10-22T07:56:25.723Z,0.30
2022-10-22T07:58:55.893Z,0.30
2022-10-22T08:01:25.941Z,0.30
2022-10-22T08:03:55.924Z,0.30
2022-10-22T08:06:25.782Z,0.30
2022-10-22T08:08:56.796Z,0.30
2022-10-22T08:11:26.067Z,0.30
2022-10-22T08:13:55.750Z,0.50
2022-10-22T08:16:25.808Z,0.50
2022-10-22T08:18:55.877Z,0.50
2022-10-22T08:21:26.343Z,0.50
2022-10-22T08:23:55.812Z,2.90
2022-10-22T08:26:25.802Z,2.90
2022-10-22T08:28:55.815Z,2.90
2022-10-22T08:31:25.831Z,2.90
2022-10-22T08:33:56.312Z,0.10
2022-10-22T08:36:25.751Z,0.10
2022-10-22T08:38:56.035Z,0.10
2022-10-22T08:41:25.933Z,0.10
2022-10-22T08:44:14.734Z,0.30
2022-10-22T08:48:59.456Z,0.30
2022-10-22T08:51:29.994Z,0.30
2022-10-22T08:54:09.719Z,0.60
2022-10-22T08:56:26.022Z,0.60
2022-10-22T08:59:02.546Z,0.60
2022-10-22T09:01:32.799Z,0.60
2022-10-22T09:03:59.399Z,0.30
2022-10-22T09:06:28.410Z,0.30
2022-10-22T09:08:57.789Z,0.30
2022-10-22T09:11:30.965Z,0.30
2022-10-22T09:13:57.067Z,0.10
2022-10-22T09:16:36.209Z,0.10
2022-10-22T09:19:05.525Z,0.10
2022-10-22T09:21:37.885Z,0.10
2022-10-22T09:24:03.494Z,0.80
2022-10-22T09:26:26.160Z,0.80
2022-10-22T09:28:59.223Z,0.80
2022-10-22T09:31:27.141Z,0.80
2022-10-22T09:33:57.269Z,0.90
2022-10-22T09:36:28.218Z,0.90
2022-10-22T09:38:59.574Z,0.90
2022-10-22T09:41:29.022Z,0.90
2022-10-22T09:43:57.101Z,0.30
2022-10-22T09:46:28.358Z,0.30
2022-10-22T09:49:02.987Z,0.30
2022-10-22T09:51:45.298Z,0.30
2022-10-22T09:53:57.540Z,0.30
2022-10-22T09:56:28.034Z,0.30
2022-10-22T09:58:57.072Z,0.30
2022-10-22T10:01:29.346Z,0.30
2022-10-22T10:04:04.562Z,4.40
2022-10-22T10:06:30.337Z,4.40
2022-10-22T10:08:56.236Z,4.40
2022-10-22T10:14:07.410Z,1.70
2022-10-22T10:16:36.612Z,1.70
2022-10-22T10:19:08.286Z,1.70
2022-10-22T10:21:34.719Z,1.70
2022-10-22T10:24:07.941Z,0.20
2022-10-22T10:26:34.288Z,0.20
2022-10-22T10:29:09.578Z,0.20
2022-10-22T10:31:37.628Z,0.20
2022-10-22T10:34:07.939Z,0.60
2022-10-22T10:36:34.931Z,0.60
2022-10-22T10:39:01.974Z,0.60
2022-10-22T10:41:37.830Z,0.60
2022-10-22T10:44:12.604Z,0.90
2022-10-22T10:46:36.262Z,0.90
2022-10-22T10:48:59.561Z,0.90
2022-10-22T10:51:36.909Z,0.90
2022-10-22T10:54:12.670Z,0.30
2022-10-22T10:56:39.030Z,0.30
2022-10-22T10:59:04.337Z,0.30
2022-10-22T11:01:33.755Z,0.30
2022-10-22T11:04:15.679Z,1.40
2022-10-22T11:06:30.747Z,1.40
2022-10-22T11:09:01.337Z,1.40
2022-10-22T11:11:32.115Z,1.40
2022-10-22T11:14:02.009Z,0.50
2022-10-22T11:16:30.744Z,0.50
2022-10-22T11:19:03.467Z,0.50
2022-10-22T11:21:31.463Z,0.50
2022-10-22T11:24:03.174Z,0.20
2022-10-22T11:26:36.251Z,0.20
2022-10-22T11:28:59.269Z,0.20
2022-10-22T11:31:27.073Z,0.20
2022-10-22T11:34:09.806Z,2.20
2022-10-22T11:36:28.230Z,2.20
2022-10-22T11:38:56.032Z,2.20
2022-10-22T11:41:30.067Z,2.20
2022-10-22T11:44:00.195Z,0.20
2022-10-22T11:46:33.913Z,0.20
2022-10-22T11:53:57.377Z,0.70
2022-10-22T11:56:36.455Z,0.70
2022-10-22T11:58:55.952Z,0.70
2022-10-22T12:01:28.833Z,0.70
2022-10-22T12:04:15.671Z,0.10
2022-10-22T12:06:27.033Z,0.10
2022-10-22T12:09:00.770Z,0.10
2022-10-22T12:11:34.315Z,0.10
2022-10-22T12:14:01.763Z,0.10
2022-10-22T12:16:37.775Z,0.10
2022-10-22T12:19:02.222Z,0.10
2022-10-22T12:21:26.062Z,0.10
2022-10-22T12:23:56.067Z,0.20
2022-10-22T12:26:28.333Z,0.20
2022-10-22T12:28:57.646Z,0.20
2022-10-22T12:36:27.771Z,0.10
2022-10-22T12:43:58.528Z,0.10
2022-10-22T12:46:27.359Z,0.10
2022-10-22T12:48:59.551Z,0.10
2022-10-22T12:51:27.418Z,0.10
2022-10-22T12:54:01.029Z,1.20
2022-10-22T12:56:30.546Z,1.20
2022-10-22T12:58:59.318Z,1.20
2022-10-22T13:01:28.314Z,1.20
2022-10-22T13:04:14.450Z,0.40
2022-10-22T13:06:27.600Z,0.40
2022-10-22T13:09:02.498Z,0.40
2022-10-22T13:11:31.346Z,0.40
2022-10-22T13:14:18.646Z,0.20
2022-10-22T13:16:29.079Z,0.20
2022-10-22T13:18:56.015Z,0.20
2022-10-22T13:21:28.839Z,0.20
2022-10-22T13:23:58.186Z,0.10
2022-10-22T13:26:32.364Z,0.10
2022-10-22T13:28:57.312Z,0.10
2022-10-22T13:31:27.874Z,0.10
2022-10-22T13:33:58.421Z,0.20
2022-10-22T13:36:26.037Z,0.20
2022-10-22T13:38:56.540Z,0.20
2022-10-22T13:41:29.914Z,0.20
2022-10-22T13:43:56.280Z,0.10
2022-10-22T13:46:26.696Z,0.10
2022-10-22T13:48:57.946Z,0.10
2022-10-22T13:51:32.377Z,0.10
2022-10-22T13:53:56.648Z,0.10
2022-10-22T13:56:26.159Z,0.10
2022-10-22T13:58:56.084Z,0.10
2022-10-22T14:04:00.879Z,0.10
2022-10-22T14:06:28.852Z,0.10
2022-10-22T14:08:59.178Z,0.10
2022-10-22T14:13:55.965Z,0.10
2022-10-22T14:16:27.819Z,0.10
2022-10-22T14:18:56.793Z,0.10
2022-10-22T14:21:29.385Z,0.10
2022-10-22T14:23:56.000Z,0.10
2022-10-22T14:26:30.373Z,0.10
2022-10-22T14:29:09.146Z,0.10
2022-10-22T14:31:26.758Z,0.10
2022-10-22T14:33:56.069Z,0.10
2022-10-22T14:36:27.003Z,0.10
2022-10-22T14:38:55.946Z,0.10
2022-10-22T14:41:28.120Z,0.10
2022-10-22T14:43:56.187Z,0.10
2022-10-22T14:46:26.017Z,0.10
2022-10-22T14:48:56.820Z,0.10
2022-10-22T14:51:25.944Z,0.10
2022-10-22T14:53:56.119Z,0.40
2022-10-22T14:56:26.078Z,0.40
2022-10-22T14:58:55.920Z,0.40
2022-10-22T15:01:25.976Z,0.40
2022-10-22T15:03:56.017Z,0.10
2022-10-22T15:06:26.194Z,0.10
2022-10-22T15:08:56.284Z,0.10
2022-10-22T15:11:26.162Z,0.10
2022-10-22T15:13:55.984Z,0.10
2022-10-22T15:16:26.525Z,0.10
2022-10-22T15:18:56.373Z,0.10
2022-10-22T15:21:25.947Z,0.10
2022-10-22T15:23:56.346Z,1.30
2022-10-22T15:26:26.872Z,1.30
2022-10-22T15:28:57.001Z,1.30
2022-10-22T15:31:45.812Z,1.30
2022-10-22T15:34:01.540Z,0.10
2022-10-22T15:36:26.096Z,0.10
2022-10-22T15:38:55.920Z,0.10
2022-10-22T15:41:26.185Z,0.10
2022-10-22T15:43:55.895Z,0.10
2022-10-22T15:46:27.010Z,0.10
2022-10-22T15:48:55.988Z,0.10
2022-10-22T15:51:26.025Z,0.10
2022-10-22T15:53:58.245Z,0.10
2022-10-22T15:56:27.644Z,0.10
2022-10-22T15:58:57.451Z,0.10
2022-10-22T16:01:26.752Z,0.10
2022-10-22T16:03:59.217Z,0.10
2022-10-22T16:08:59.120Z,0.10
2022-10-22T16:11:27.388Z,0.10
2022-10-22T16:13:57.725Z,0.10
2022-10-22T16:16:27.811Z,0.10
2022-10-22T16:18:56.481Z,0.10
2022-10-22T16:21:27.303Z,0.10
2022-10-22T16:23:56.404Z,0.30
2022-10-22T16:26:26.200Z,0.30
2022-10-22T16:28:57.520Z,0.30
2022-10-22T16:31:26.586Z,0.30
2022-10-22T16:33:57.106Z,0.20
2022-10-22T16:36:26.368Z,0.20
2022-10-22T16:38:55.975Z,0.20
2022-10-22T16:41:34.050Z,0.20
2022-10-22T16:43:56.020Z,0.30
2022-10-22T16:46:26.126Z,0.30
2022-10-22T16:48:56.295Z,0.30
2022-10-22T16:51:27.521Z,0.30
2022-10-22T16:53:56.539Z,0.10
2022-10-22T16:56:26.541Z,0.10
2022-10-22T16:58:56.991Z,0.10
2022-10-22T17:01:28.178Z,0.10
2022-10-22T17:03:58.439Z,0.10
2022-10-22T17:06:26.314Z,0.10
2022-10-22T17:11:29.058Z,0.10
2022-10-22T17:13:55.991Z,0.10
2022-10-22T17:16:26.005Z,0.10
2022-10-22T17:18:57.271Z,0.10
2022-10-22T17:21:25.990Z,0.10
2022-10-22T17:23:57.298Z,5.80
2022-10-22T17:26:26.190Z,5.80
2022-10-22T17:28:56.226Z,5.80
2022-10-22T17:31:27.735Z,5.80
2022-10-22T17:33:56.259Z,0.10
2022-10-22T17:39:00.885Z,0.10
2022-10-22T17:41:28.130Z,0.10
2022-10-22T17:46:28.226Z,0.20
2022-10-22T17:48:58.240Z,0.20
2022-10-22T17:51:28.137Z,0.20
2022-10-22T17:53:56.859Z,0.20
2022-10-22T17:56:28.862Z,0.20
2022-10-22T17:58:56.380Z,0.20
2022-10-22T18:01:28.277Z,0.20
2022-10-22T18:04:00.028Z,0.30
2022-10-22T18:06:26.958Z,0.30
2022-10-22T18:08:56.408Z,0.30
2022-10-22T18:11:27.371Z,0.30
2022-10-22T18:13:56.873Z,0.10
2022-10-22T18:16:26.092Z,0.10
2022-10-22T18:18:57.379Z,0.10
2022-10-22T18:21:27.694Z,0.10
2022-10-22T18:23:58.066Z,1.50
2022-10-22T18:26:27.091Z,1.50
2022-10-22T18:28:56.585Z,1.50
2022-10-22T18:31:27.345Z,1.50
2022-10-22T18:33:57.179Z,0.30
2022-10-22T18:36:26.713Z,0.30
2022-10-22T18:38:58.434Z,0.30
2022-10-22T18:41:27.372Z,0.30
2022-10-22T18:43:58.317Z,0.60
2022-10-22T18:46:27.854Z,0.60
2022-10-22T18:48:57.513Z,0.60
2022-10-22T18:51:29.667Z,0.60
2022-10-22T18:56:26.493Z,0.40
2022-10-22T18:58:56.089Z,0.40
2022-10-22T19:08:56.297Z,0.40
2022-10-22T19:11:26.644Z,0.40
2022-10-22T19:16:26.332Z,0.40
2022-10-22T19:18:59.956Z,0.40
2022-10-22T19:21:26.961Z,0.40
2022-10-22T19:26:28.756Z,1.00
2022-10-22T19:28:58.199Z,1.00
2022-10-22T19:33:56.898Z,1.00
2022-10-22T19:36:26.932Z,1.00
2022-10-22T19:38:57.293Z,1.00
2022-10-22T19:41:28.694Z,1.00
2022-10-22T19:43:57.401Z,0.30
2022-10-22T19:46:28.365Z,0.30
2022-10-22T19:48:56.223Z,0.30
2022-10-22T19:51:28.938Z,0.30
2022-10-22T19:53:58.415Z,0.20
2022-10-22T19:56:27.000Z,0.20
2022-10-22T19:58:57.398Z,0.20
2022-10-22T20:01:26.296Z,0.20
2022-10-22T20:03:56.140Z,0.20
2022-10-22T20:06:26.987Z,0.20
2022-10-22T20:08:56.522Z,0.20
2022-10-22T20:18:59.742Z,0.20
2022-10-22T20:21:26.470Z,0.20
2022-10-22T20:26:27.251Z,0.30
2022-10-22T20:28:57.063Z,0.30
2022-10-22T20:31:28.607Z,0.30
2022-10-22T20:33:57.882Z,0.20
2022-10-22T20:36:28.531Z,0.20
2022-10-22T20:38:59.727Z,0.20
2022-10-22T20:43:56.686Z,0.30
2022-10-22T20:46:28.326Z,0.30
2022-10-22T20:51:26.160Z,0.30
2022-10-22T20:53:56.349Z,0.40
2022-10-22T20:56:27.316Z,0.40
2022-10-22T20:59:03.510Z,0.40
2022-10-22T21:01:27.600Z,0.40
2022-10-22T21:03:56.022Z,0.20
2022-10-22T21:11:26.206Z,0.20
2022-10-22T21:13:56.296Z,0.30
2022-10-22T21:16:26.373Z,0.30
2022-10-22T21:18:56.277Z,0.30
2022-10-22T21:21:26.744Z,0.30
2022-10-22T21:23:56.247Z,0.70
2022-10-22T21:26:26.385Z,0.70
2022-10-22T21:28:56.228Z,0.70
2022-10-22T21:31:26.883Z,0.70
2022-10-22T21:33:56.300Z,0.20
2022-10-22T21:36:26.340Z,0.20
2022-10-22T21:38:56.398Z,0.20
2022-10-22T21:41:26.111Z,0.20
2022-10-22T21:43:57.298Z,0.50
2022-10-22T21:46:27.248Z,0.50
2022-10-22T21:48:58.289Z,0.50
2022-10-22T21:51:26.801Z,0.50
2022-10-22T21:53:56.383Z,0.30
2022-10-22T21:56:28.630Z,0.30
2022-10-22T21:58:56.289Z,0.30
2022-10-22T22:01:26.947Z,0.30
2022-10-22T22:03:56.762Z,1.10
2022-10-22T22:06:29.529Z,1.10
2022-10-22T22:08:56.364Z,1.10
2022-10-22T22:11:27.770Z,1.10
2022-10-22T22:13:57.225Z,0.40
2022-10-22T22:18:58.174Z,0.40
2022-10-22T22:21:26.766Z,0.40
2022-10-22T22:23:57.111Z,0.40
2022-10-22T22:28:57.533Z,0.40
2022-10-22T22:31:28.482Z,0.40
2022-10-22T22:36:27.118Z,0.40
2022-10-22T22:38:56.156Z,0.40
2022-10-22T22:41:26.197Z,0.40
2022-10-22T22:43:56.321Z,0.30
2022-10-22T22:46:26.151Z,0.30
2022-10-22T22:48:56.392Z,0.30
2022-10-22T22:51:27.547Z,0.30
2022-10-22T22:53:56.755Z,2.70
2022-10-22T22:56:28.072Z,2.70
2022-10-22T22:58:57.396Z,2.70
2022-10-22T23:01:29.083Z,2.70
2022-10-22T23:03:58.868Z,0.30
2022-10-22T23:06:28.823Z,0.30
2022-10-22T23:08:57.963Z,0.30
2022-10-22T23:11:27.189Z,0.30
2022-10-22T23:13:58.903Z,0.60
2022-10-22T23:16:28.961Z,0.60
2022-10-22T23:21:27.934Z,0.60
2022-10-22T23:23:59.225Z,0.30
2022-10-22T23:26:29.091Z,0.30
2022-10-22T23:31:26.456Z,0.30
2022-10-22T23:33:56.543Z,0.30
2022-10-22T23:38:56.455Z,0.30
2022-10-22T23:41:26.158Z,0.30
2022-10-22T23:43:56.235Z,0.50
2022-10-22T23:46:26.189Z,0.50
2022-10-22T23:51:26.783Z,0.50
2022-10-22T23:53:58.696Z,0.60
2022-10-22T23:56:26.683Z,0.60
2022-10-22T23:58:57.062Z,0.60
